createdAt,value
2022-09-13T00:00:50.668Z,15.20
2022-09-13T00:03:19.292Z,15.00
2022-09-13T00:05:47.535Z,15.10
2022-09-13T00:08:15.749Z,15.10
2022-09-13T00:10:45.968Z,15.10
2022-09-13T00:13:14.775Z,15.00
2022-09-13T00:15:44.271Z,15.00
2022-09-13T00:18:12.409Z,15.00
2022-09-13T00:20:40.474Z,15.00
2022-09-13T00:23:08.508Z,14.90
2022-09-13T00:25:36.574Z,15.00
2022-09-13T00:28:06.100Z,15.00
2022-09-13T00:30:34.489Z,15.00
2022-09-13T00:33:04.854Z,15.00
2022-09-13T00:35:33.071Z,14.90
2022-09-13T00:38:01.705Z,14.90
2022-09-13T00:40:30.670Z,14.90
2022-09-13T00:42:58.890Z,14.90
2022-09-13T00:45:28.392Z,14.90
2022-09-13T00:47:58.665Z,14.90
2022-09-13T00:50:29.087Z,14.90
2022-09-13T00:52:58.769Z,14.80
2022-09-13T00:55:29.314Z,14.80
2022-09-13T00:58:00.686Z,14.80
2022-09-13T01:00:30.325Z,14.80
2022-09-13T01:03:00.028Z,14.80
2022-09-13T01:05:29.055Z,14.80
2022-09-13T01:07:57.755Z,14.80
2022-09-13T01:10:26.777Z,14.70
2022-09-13T01:12:57.409Z,14.70
2022-09-13T01:15:25.487Z,14.70
2022-09-13T01:17:55.949Z,14.70
2022-09-13T01:20:26.796Z,14.70
2022-09-13T01:23:09.237Z,14.70
2022-09-13T01:26:08.469Z,14.70
2022-09-13T01:28:55.107Z,14.70
2022-09-13T01:31:27.139Z,14.70
2022-09-13T01:34:01.126Z,14.60
2022-09-13T01:36:44.410Z,14.60
2022-09-13T01:39:15.427Z,14.60
2022-09-13T01:41:55.189Z,14.60
2022-09-13T01:44:29.656Z,14.60
2022-09-13T01:47:04.519Z,14.50
2022-09-13T01:49:35.364Z,14.50
2022-09-13T01:52:06.487Z,14.50
2022-09-13T01:54:38.781Z,14.50
2022-09-13T01:57:11.196Z,14.50
2022-09-13T01:59:41.579Z,14.40
2022-09-13T02:02:14.654Z,14.40
2022-09-13T02:04:44.438Z,14.40
2022-09-13T02:07:14.828Z,14.50
2022-09-13T02:09:44.236Z,14.40
2022-09-13T02:12:15.217Z,14.50
2022-09-13T02:14:45.050Z,14.50
2022-09-13T02:17:17.001Z,14.50
2022-09-13T02:19:49.158Z,14.50
2022-09-13T02:22:19.439Z,14.50
2022-09-13T02:24:49.573Z,14.50
2022-09-13T02:27:20.405Z,14.50
2022-09-13T02:29:50.462Z,14.50
2022-09-13T02:32:22.990Z,14.50
2022-09-13T02:34:55.060Z,14.50
2022-09-13T02:37:24.496Z,14.50
2022-09-13T02:39:56.490Z,14.50
2022-09-13T02:42:30.830Z,14.40
2022-09-13T02:44:59.889Z,14.40
2022-09-13T02:47:35.638Z,14.40
2022-09-13T02:50:11.480Z,14.40
2022-09-13T02:52:44.086Z,14.40
2022-09-13T02:55:17.098Z,14.30
2022-09-13T02:57:52.029Z,14.30
2022-09-13T03:00:21.258Z,14.30
2022-09-13T03:02:51.288Z,14.30
2022-09-13T03:05:19.380Z,14.30
2022-09-13T03:07:47.728Z,14.30
2022-09-13T03:10:16.659Z,14.30
2022-09-13T03:12:55.411Z,14.30
2022-09-13T03:15:30.898Z,14.30
2022-09-13T03:18:07.858Z,14.30
2022-09-13T03:20:40.497Z,14.40
2022-09-13T03:23:22.770Z,14.40
2022-09-13T03:26:04.868Z,14.40
2022-09-13T03:28:37.400Z,14.40
2022-09-13T03:31:08.495Z,14.30
2022-09-13T03:33:43.435Z,14.30
2022-09-13T03:36:14.098Z,14.30
2022-09-13T03:38:45.059Z,14.30
2022-09-13T03:41:15.425Z,14.30
2022-09-13T03:43:45.811Z,14.40
2022-09-13T03:46:16.847Z,14.30
2022-09-13T03:48:46.629Z,14.40
2022-09-13T03:51:15.138Z,14.40
2022-09-13T03:53:47.490Z,14.30
2022-09-13T03:56:16.059Z,14.30
2022-09-13T03:58:44.325Z,14.40
2022-09-13T04:01:12.438Z,14.40
2022-09-13T04:03:40.979Z,14.40
2022-09-13T04:06:10.820Z,14.40
2022-09-13T04:08:39.289Z,14.40
2022-09-13T04:11:07.571Z,14.40
2022-09-13T04:13:36.320Z,14.40
2022-09-13T04:16:04.905Z,14.30
2022-09-13T04:18:33.146Z,14.30
2022-09-13T04:21:02.080Z,14.30
2022-09-13T04:23:31.601Z,14.30
2022-09-13T04:26:02.868Z,14.30
2022-09-13T04:28:31.062Z,14.30
2022-09-13T04:30:59.119Z,14.40
2022-09-13T04:33:27.136Z,14.40
2022-09-13T04:35:55.840Z,14.40
2022-09-13T04:38:24.008Z,14.40
2022-09-13T04:40:57.809Z,14.30
2022-09-13T04:43:26.149Z,14.40
2022-09-13T04:45:54.250Z,14.40
2022-09-13T04:48:22.394Z,14.40
2022-09-13T04:50:50.473Z,14.40
2022-09-13T04:53:18.704Z,14.40
2022-09-13T04:55:46.731Z,14.40
2022-09-13T04:58:16.283Z,14.50
2022-09-13T05:00:44.423Z,14.40
2022-09-13T05:03:13.706Z,14.50
2022-09-13T05:05:41.863Z,14.50
2022-09-13T05:08:09.957Z,14.60
2022-09-13T05:10:39.215Z,14.60
2022-09-13T05:13:07.384Z,14.70
2022-09-13T05:15:36.824Z,14.70
2022-09-13T05:18:04.984Z,14.70
2022-09-13T05:20:33.054Z,14.70
2022-09-13T05:23:01.139Z,14.70
2022-09-13T05:25:29.188Z,14.80
2022-09-13T05:27:57.270Z,14.90
2022-09-13T05:30:25.345Z,14.90
2022-09-13T05:32:54.953Z,15.00
2022-09-13T05:35:22.993Z,15.10
2022-09-13T05:37:51.189Z,15.10
2022-09-13T05:40:19.332Z,15.10
2022-09-13T05:42:47.982Z,15.20
2022-09-13T05:45:16.241Z,15.20
2022-09-13T05:47:44.323Z,15.20
2022-09-13T05:50:32.940Z,15.30
2022-09-13T05:53:02.019Z,15.40
2022-09-13T05:55:31.165Z,15.50
2022-09-13T05:58:00.442Z,15.70
2022-09-13T06:00:29.822Z,15.60
2022-09-13T06:02:58.543Z,15.70
2022-09-13T06:05:31.853Z,15.60
2022-09-13T06:08:01.159Z,15.70
2022-09-13T06:10:29.162Z,15.70
2022-09-13T06:12:57.763Z,15.80
2022-09-13T06:15:25.805Z,15.80
2022-09-13T06:17:53.872Z,15.80
2022-09-13T06:20:21.913Z,15.90
2022-09-13T06:22:51.523Z,15.90
2022-09-13T06:25:19.596Z,15.90
2022-09-13T06:27:50.038Z,15.90
2022-09-13T06:30:19.737Z,15.90
2022-09-13T06:32:47.722Z,15.90
2022-09-13T06:35:16.731Z,15.90
2022-09-13T06:37:44.962Z,15.90
2022-09-13T06:40:14.914Z,15.80
2022-09-13T06:42:43.763Z,15.80
2022-09-13T06:45:12.030Z,15.80
2022-09-13T06:47:40.149Z,15.70
2022-09-13T06:50:09.669Z,15.80
2022-09-13T06:52:37.869Z,15.90
2022-09-13T06:55:12.085Z,15.90
2022-09-13T06:57:54.838Z,15.90
2022-09-13T07:00:38.100Z,15.80
2022-09-13T07:03:06.323Z,15.80
2022-09-13T07:05:37.103Z,15.90
2022-09-13T07:08:05.250Z,15.90
2022-09-13T07:10:40.146Z,15.90
2022-09-13T07:13:11.805Z,15.90
2022-09-13T07:15:40.027Z,15.80
2022-09-13T07:21:00.523Z,15.90
2022-09-13T07:23:28.852Z,15.90
2022-09-13T07:26:01.983Z,15.90
2022-09-13T07:28:35.362Z,15.90
2022-09-13T07:31:07.848Z,16.00
2022-09-13T07:33:36.102Z,16.00
2022-09-13T07:36:06.620Z,16.00
2022-09-13T07:38:35.359Z,16.00
2022-09-13T07:41:06.678Z,16.00
2022-09-13T07:43:36.912Z,16.00
2022-09-13T07:46:06.897Z,16.20
2022-09-13T07:48:35.953Z,16.30
2022-09-13T07:51:05.195Z,16.40
2022-09-13T07:53:34.582Z,16.50
2022-09-13T07:56:04.709Z,16.50
2022-09-13T07:58:33.604Z,16.50
2022-09-13T08:01:05.691Z,16.60
2022-09-13T08:03:34.464Z,16.60
2022-09-13T08:06:02.724Z,16.60
2022-09-13T08:08:31.472Z,16.60
2022-09-13T08:10:59.838Z,16.80
2022-09-13T08:13:28.984Z,16.80
2022-09-13T08:15:57.538Z,16.90
2022-09-13T08:18:27.260Z,16.90
2022-09-13T08:20:57.384Z,17.00
2022-09-13T08:23:25.932Z,17.10
2022-09-13T08:25:54.052Z,17.20
2022-09-13T08:28:27.322Z,17.30
2022-09-13T08:30:56.171Z,17.40
2022-09-13T08:33:24.245Z,17.40
2022-09-13T08:35:55.693Z,17.40
2022-09-13T08:38:23.813Z,17.60
2022-09-13T08:40:54.919Z,17.60
2022-09-13T08:43:25.723Z,17.70
2022-09-13T08:45:57.870Z,17.80
2022-09-13T08:48:32.831Z,17.80
2022-09-13T08:51:05.220Z,17.80
2022-09-13T08:53:34.383Z,17.90
2022-09-13T08:56:04.712Z,17.90
2022-09-13T08:58:38.210Z,17.90
2022-09-13T09:01:09.258Z,18.00
2022-09-13T09:03:43.312Z,18.00
2022-09-13T09:06:16.129Z,18.10
2022-09-13T09:08:48.716Z,18.20
2022-09-13T09:11:21.863Z,18.20
2022-09-13T09:13:53.493Z,18.30
2022-09-13T09:16:29.875Z,18.40
2022-09-13T09:19:00.252Z,18.40
2022-09-13T09:21:30.634Z,18.50
2022-09-13T09:23:59.423Z,18.60
2022-09-13T09:26:29.346Z,18.60
2022-09-13T09:28:59.291Z,18.70
2022-09-13T09:31:33.062Z,18.90
2022-09-13T09:34:05.453Z,19.10
2022-09-13T09:36:39.426Z,19.20
2022-09-13T09:39:11.519Z,19.30
2022-09-13T09:41:39.783Z,19.40
2022-09-13T09:44:15.351Z,19.80
2022-09-13T09:46:44.359Z,20.20
2022-09-13T09:49:35.974Z,20.20
2022-09-13T09:52:07.536Z,20.20
2022-09-13T09:54:38.264Z,20.20
2022-09-13T09:57:08.268Z,20.20
2022-09-13T09:59:37.252Z,20.40
2022-09-13T10:02:16.476Z,20.50
2022-09-13T10:04:45.128Z,20.60
2022-09-13T10:07:23.063Z,20.90
2022-09-13T10:10:06.442Z,21.10
2022-09-13T10:12:36.712Z,21.30
2022-09-13T10:15:16.788Z,21.50
2022-09-13T10:17:45.308Z,21.60
2022-09-13T10:20:26.826Z,21.50
2022-09-13T10:23:15.602Z,21.50
2022-09-13T10:25:48.059Z,21.60
2022-09-13T10:28:18.201Z,21.70
2022-09-13T10:30:50.852Z,21.90
2022-09-13T10:33:25.722Z,22.10
2022-09-13T10:35:55.851Z,22.10
2022-09-13T10:38:27.443Z,22.10
2022-09-13T10:40:57.142Z,22.20
2022-09-13T10:43:26.103Z,22.10
2022-09-13T10:45:54.607Z,22.10
2022-09-13T10:48:24.396Z,22.10
2022-09-13T10:51:02.642Z,22.10
2022-09-13T10:53:38.082Z,22.20
2022-09-13T10:56:20.934Z,22.30
2022-09-13T10:58:49.848Z,22.40
2022-09-13T11:01:40.303Z,22.40
2022-09-13T11:04:26.422Z,22.40
2022-09-13T11:07:02.087Z,22.30
2022-09-13T11:09:33.401Z,22.20
2022-09-13T11:12:06.842Z,22.20
2022-09-13T11:14:41.163Z,22.20
2022-09-13T11:17:15.880Z,22.40
2022-09-13T11:20:01.799Z,22.60
2022-09-13T11:22:51.968Z,22.90
2022-09-13T11:25:29.029Z,23.10
2022-09-13T11:28:01.982Z,23.30
2022-09-13T11:30:32.762Z,23.30
2022-09-13T11:33:11.415Z,23.50
2022-09-13T11:35:51.531Z,23.30
2022-09-13T11:38:38.758Z,23.20
2022-09-13T11:41:13.942Z,23.10
2022-09-13T11:44:01.966Z,22.90
2022-09-13T11:46:39.663Z,22.70
2022-09-13T11:49:20.955Z,22.60
2022-09-13T11:51:52.767Z,22.60
2022-09-13T11:54:25.658Z,22.60
2022-09-13T11:56:55.846Z,22.70
2022-09-13T11:59:30.097Z,22.80
2022-09-13T12:02:01.712Z,22.90
2022-09-13T12:04:33.922Z,23.00
2022-09-13T12:07:04.036Z,23.00
2022-09-13T12:09:34.422Z,23.00
2022-09-13T12:12:05.273Z,23.00
2022-09-13T12:14:38.801Z,23.00
2022-09-13T12:17:13.906Z,23.00
2022-09-13T12:19:44.242Z,23.00
2022-09-13T12:22:14.254Z,23.00
2022-09-13T12:24:45.030Z,23.00
2022-09-13T12:27:14.914Z,23.00
2022-09-13T12:29:49.488Z,23.10
2022-09-13T12:32:19.262Z,23.10
2022-09-13T12:34:49.798Z,23.00
2022-09-13T12:37:22.689Z,23.00
2022-09-13T12:40:14.822Z,22.90
2022-09-13T12:42:53.635Z,23.00
2022-09-13T12:45:31.891Z,22.90
2022-09-13T12:48:17.833Z,22.90
2022-09-13T12:51:03.687Z,22.90
2022-09-13T12:53:43.232Z,22.90
2022-09-13T12:56:20.754Z,22.90
2022-09-13T12:59:06.707Z,22.90
2022-09-13T13:01:35.387Z,22.90
2022-09-13T13:04:05.311Z,22.80
2022-09-13T13:06:37.320Z,22.90
2022-09-13T13:09:07.271Z,22.90
2022-09-13T13:11:46.273Z,22.90
2022-09-13T13:14:29.178Z,22.90
2022-09-13T13:17:12.476Z,22.90
2022-09-13T13:19:40.599Z,23.00
2022-09-13T13:22:27.059Z,23.10
2022-09-13T13:24:56.591Z,23.20
2022-09-13T13:27:46.253Z,23.20
2022-09-13T13:30:34.660Z,23.20
2022-09-13T13:33:06.365Z,23.30
2022-09-13T13:35:34.677Z,23.40
2022-09-13T13:38:15.829Z,23.50
2022-09-13T13:40:47.701Z,23.70
2022-09-13T13:43:31.736Z,23.90
2022-09-13T13:46:20.281Z,23.90
2022-09-13T13:51:25.540Z,23.80
2022-09-13T13:53:55.833Z,23.80
2022-09-13T13:56:29.966Z,23.90
2022-09-13T13:59:00.170Z,24.00
2022-09-13T14:01:31.136Z,24.00
2022-09-13T14:04:19.943Z,24.00
2022-09-13T14:06:50.491Z,24.10
2022-09-13T14:09:32.975Z,24.20
2022-09-13T14:12:11.636Z,24.10
2022-09-13T14:14:45.083Z,23.90
2022-09-13T14:17:31.965Z,23.80
2022-09-13T14:20:02.066Z,23.80
2022-09-13T14:22:30.350Z,23.70
2022-09-13T14:24:59.051Z,23.60
2022-09-13T14:27:30.541Z,23.60
2022-09-13T14:29:59.870Z,23.50
2022-09-13T14:32:35.868Z,23.40
2022-09-13T14:35:06.140Z,23.40
2022-09-13T14:37:36.088Z,23.40
2022-09-13T14:40:13.063Z,23.40
2022-09-13T14:42:44.913Z,23.30
2022-09-13T14:45:14.388Z,23.40
2022-09-13T14:47:46.639Z,23.30
2022-09-13T14:50:16.029Z,23.30
2022-09-13T14:52:47.426Z,23.30
2022-09-13T14:55:17.043Z,23.20
2022-09-13T14:57:50.183Z,23.20
2022-09-13T15:00:19.481Z,23.10
2022-09-13T15:02:50.482Z,23.10
2022-09-13T15:05:20.038Z,23.10
2022-09-13T15:07:48.106Z,23.00
2022-09-13T15:10:23.953Z,23.00
2022-09-13T15:12:55.109Z,22.90
2022-09-13T15:15:26.332Z,22.90
2022-09-13T15:17:58.191Z,22.90
2022-09-13T15:20:27.600Z,22.90
2022-09-13T15:22:56.340Z,22.80
2022-09-13T15:25:26.326Z,22.80
2022-09-13T15:27:56.678Z,22.80
2022-09-13T15:30:26.639Z,22.80
2022-09-13T15:33:15.430Z,22.80
2022-09-13T15:35:44.322Z,22.90
2022-09-13T15:38:19.879Z,22.90
2022-09-13T15:40:49.181Z,23.00
2022-09-13T15:43:18.777Z,23.00
2022-09-13T15:45:46.987Z,23.00
2022-09-13T15:48:21.070Z,23.00
2022-09-13T15:51:04.783Z,22.80
2022-09-13T15:53:32.910Z,22.70
2022-09-13T15:56:02.026Z,22.60
2022-09-13T15:58:32.256Z,22.50
2022-09-13T16:01:01.052Z,22.50
2022-09-13T16:03:29.791Z,22.40
2022-09-13T16:05:58.426Z,22.40
2022-09-13T16:08:26.600Z,22.30
2022-09-13T16:10:54.831Z,22.20
2022-09-13T16:13:23.501Z,22.20
2022-09-13T16:15:57.578Z,22.20
2022-09-13T16:18:26.070Z,22.10
2022-09-13T16:20:54.132Z,22.10
2022-09-13T16:23:22.489Z,22.10
2022-09-13T16:25:51.837Z,22.10
2022-09-13T16:28:21.336Z,22.10
2022-09-13T16:30:49.733Z,22.00
2022-09-13T16:33:19.817Z,22.00
2022-09-13T16:35:48.093Z,22.00
2022-09-13T16:38:16.233Z,21.90
2022-09-13T16:40:45.311Z,21.90
2022-09-13T16:43:13.849Z,21.90
2022-09-13T16:45:43.046Z,21.90
2022-09-13T16:48:11.229Z,21.90
2022-09-13T16:50:42.160Z,21.90
2022-09-13T16:53:10.690Z,21.90
2022-09-13T16:55:38.811Z,21.90
2022-09-13T16:58:06.990Z,21.80
2022-09-13T17:00:35.260Z,21.70
2022-09-13T17:03:03.480Z,21.60
2022-09-13T17:05:31.772Z,21.60
2022-09-13T17:08:01.280Z,21.50
2022-09-13T17:10:29.371Z,21.50
2022-09-13T17:12:58.578Z,21.40
2022-09-13T17:15:26.736Z,21.40
2022-09-13T17:17:54.950Z,21.30
2022-09-13T17:20:23.126Z,21.30
2022-09-13T17:22:51.322Z,21.20
2022-09-13T17:25:21.137Z,21.20
2022-09-13T17:27:49.273Z,21.20
2022-09-13T17:30:18.598Z,21.10
2022-09-13T17:32:48.795Z,21.10
2022-09-13T17:35:17.453Z,21.10
2022-09-13T17:37:45.653Z,21.10
2022-09-13T17:40:13.926Z,21.10
2022-09-13T17:42:43.652Z,21.10
2022-09-13T17:45:13.258Z,21.10
2022-09-13T17:47:41.416Z,21.00
2022-09-13T17:50:10.038Z,20.90
2022-09-13T17:52:38.290Z,21.00
2022-09-13T17:55:07.324Z,20.90
2022-09-13T17:57:35.474Z,20.90
2022-09-13T18:00:05.773Z,20.90
2022-09-13T18:02:36.276Z,20.90
2022-09-13T18:05:07.103Z,20.80
2022-09-13T18:07:37.802Z,20.80
2022-09-13T18:10:20.255Z,20.70
2022-09-13T18:12:54.805Z,20.70
2022-09-13T18:15:24.535Z,20.60
2022-09-13T18:17:52.726Z,20.60
2022-09-13T18:20:21.105Z,20.50
2022-09-13T18:22:49.445Z,20.50
2022-09-13T18:25:18.139Z,20.50
2022-09-13T18:27:46.282Z,20.40
2022-09-13T18:30:14.667Z,20.30
2022-09-13T18:32:44.276Z,20.30
2022-09-13T18:35:12.443Z,20.30
2022-09-13T18:37:41.671Z,20.20
2022-09-13T18:40:14.173Z,20.30
2022-09-13T18:42:45.057Z,20.20
2022-09-13T18:45:14.816Z,20.20
2022-09-13T18:47:44.706Z,20.20
2022-09-13T18:50:17.970Z,20.20
2022-09-13T18:52:48.137Z,20.20
2022-09-13T18:55:17.556Z,20.20
2022-09-13T18:57:46.213Z,20.10
2022-09-13T19:00:14.802Z,20.10
2022-09-13T19:03:08.393Z,20.10
2022-09-13T19:05:33.968Z,20.00
2022-09-13T19:08:02.622Z,20.00
2022-09-13T19:10:32.571Z,20.00
2022-09-13T19:13:03.156Z,19.90
2022-09-13T19:15:31.847Z,19.90
2022-09-13T19:18:01.815Z,19.90
2022-09-13T19:20:30.501Z,19.90
2022-09-13T19:22:59.833Z,19.90
2022-09-13T19:25:30.574Z,19.80
2022-09-13T19:27:59.124Z,19.70
2022-09-13T19:30:27.446Z,19.70
2022-09-13T19:32:56.335Z,19.70
2022-09-13T19:35:26.717Z,19.60
2022-09-13T19:37:55.394Z,19.60
2022-09-13T19:40:23.755Z,19.70
2022-09-13T19:42:52.196Z,19.70
2022-09-13T19:45:20.741Z,19.60
2022-09-13T19:50:40.456Z,19.60
2022-09-13T19:53:09.259Z,19.60
2022-09-13T19:55:45.116Z,19.50
2022-09-13T19:58:13.255Z,19.60
2022-09-13T20:00:41.633Z,19.50
2022-09-13T20:03:10.368Z,19.50
2022-09-13T20:05:40.180Z,19.50
2022-09-13T20:08:08.336Z,19.40
2022-09-13T20:10:38.947Z,19.30
2022-09-13T20:13:07.110Z,19.30
2022-09-13T20:15:36.505Z,19.30
2022-09-13T20:18:06.958Z,19.30
2022-09-13T20:20:59.406Z,19.20
2022-09-13T20:23:29.025Z,19.20
2022-09-13T20:25:57.335Z,19.10
2022-09-13T20:28:26.193Z,19.10
2022-09-13T20:30:54.724Z,19.00
2022-09-13T20:33:23.177Z,19.00
2022-09-13T20:35:52.227Z,19.00
2022-09-13T20:38:21.112Z,18.90
2022-09-13T20:40:50.741Z,19.20
2022-09-13T20:43:19.030Z,18.90
2022-09-13T20:45:56.446Z,18.90
2022-09-13T20:48:24.937Z,18.90
2022-09-13T20:50:59.905Z,18.90
2022-09-13T20:53:28.531Z,19.00
2022-09-13T20:56:03.111Z,18.90
2022-09-13T20:58:32.815Z,18.90
2022-09-13T21:01:03.422Z,18.90
2022-09-13T21:03:31.822Z,18.90
2022-09-13T21:06:01.600Z,18.90
2022-09-13T21:08:44.181Z,18.90
2022-09-13T21:11:15.184Z,18.80
2022-09-13T21:13:45.026Z,18.80
2022-09-13T21:16:15.509Z,18.80
2022-09-13T21:19:01.082Z,18.80
2022-09-13T21:21:31.567Z,18.80
2022-09-13T21:24:00.587Z,18.90
2022-09-13T21:26:30.784Z,18.90
2022-09-13T21:28:59.396Z,18.90
2022-09-13T21:31:28.402Z,18.90
2022-09-13T21:33:57.175Z,18.80
2022-09-13T21:36:25.761Z,18.80
2022-09-13T21:38:54.607Z,18.80
2022-09-13T21:41:23.676Z,18.80
2022-09-13T21:43:53.207Z,18.80
2022-09-13T21:46:22.310Z,18.80
2022-09-13T21:48:51.226Z,18.80
2022-09-13T21:51:20.742Z,18.80
2022-09-13T21:53:49.803Z,18.80
2022-09-13T21:56:18.728Z,18.80
2022-09-13T21:58:49.487Z,18.90
2022-09-13T22:01:20.183Z,18.80
2022-09-13T22:03:48.440Z,18.80
2022-09-13T22:06:17.314Z,18.80
2022-09-13T22:08:46.826Z,18.80
2022-09-13T22:11:16.795Z,18.80
2022-09-13T22:13:47.588Z,18.80
2022-09-13T22:16:34.583Z,18.80
2022-09-13T22:19:08.934Z,18.80
2022-09-13T22:21:56.702Z,18.70
2022-09-13T22:24:46.270Z,18.60
2022-09-13T22:27:22.472Z,18.60
2022-09-13T22:29:50.626Z,18.60
2022-09-13T22:32:23.040Z,18.60
2022-09-13T22:34:53.132Z,18.60
2022-09-13T22:37:21.323Z,18.60
2022-09-13T22:39:49.530Z,18.60
2022-09-13T22:42:18.775Z,18.60
2022-09-13T22:44:46.966Z,18.60
2022-09-13T22:47:15.032Z,18.60
2022-09-13T22:49:43.177Z,18.50
2022-09-13T22:52:12.725Z,18.50
2022-09-13T22:54:40.877Z,18.50
2022-09-13T22:57:11.046Z,18.40
2022-09-13T22:59:39.658Z,18.50
2022-09-13T23:02:11.126Z,18.50
2022-09-13T23:04:39.254Z,18.40
2022-09-13T23:07:07.514Z,18.30
2022-09-13T23:09:37.016Z,18.30
2022-09-13T23:12:05.353Z,18.30
2022-09-13T23:14:33.562Z,18.20
2022-09-13T23:17:01.740Z,18.20
2022-09-13T23:19:30.015Z,18.20
2022-09-13T23:21:58.143Z,18.10
2022-09-13T23:24:26.331Z,18.10
2022-09-13T23:26:57.364Z,18.10
2022-09-13T23:29:25.594Z,18.20
2022-09-13T23:31:54.027Z,18.10
2022-09-13T23:34:23.114Z,18.10
2022-09-13T23:36:52.597Z,18.10
2022-09-13T23:39:21.034Z,18.10
2022-09-13T23:41:52.294Z,18.10
2022-09-13T23:44:21.853Z,18.00
2022-09-13T23:46:50.069Z,18.00
2022-09-13T23:49:18.199Z,18.10
2022-09-13T23:51:46.637Z,18.00
2022-09-13T23:54:15.318Z,17.90
2022-09-13T23:56:44.782Z,17.90
2022-09-13T23:59:13.599Z,17.90
